首页
METAR-TAF:

METAR-TAF

机场 :

克拉斯诺达尔, 俄罗斯

纬度: 45-02N, 经度: 039-09E, 海拔: 33米

当前天气观测

该预报发布于39分钟前的06:00 UTC
风速2节,风向多变
温度 28°C
湿度 70%
气压 1015 hPa
能见度10公里或以上
少量云层高于2700英尺

METAR: URKK 250600Z VRB01MPS 9999 FEW027 28/22 Q1015 R23L/CLRD70 NOSIG RMK QFE758

时间: 09:39 (06:39 UTC)

预报

该预报发布于1小时和43分钟前的04:56 UTC
预报有效从25日的 06点(UTC)到 26日的 06点(UTC)
风速6节,风向,有时为16节阵风
能见度10公里或以上
散云层高于4000英尺, 积雨云.
短暂存在
从 25日的 09点(UTC)到 25日的 21点(UTC)
风速14节,风向多变,有时为27节阵风
能見度: 3100
多云层高于3000英尺, 积雨云.
雷暴, 小雨
成为
从 26日的 00点(UTC)到 26日的 02点(UTC)
风速6节,风向东转东北,有时为16节阵风

TAF: URKK 250456Z 2506/2606 36003G08MPS 9999 SCT040CB TEMPO 2509/2521 VRB07G14MPS 3100 -TSRA BKN030CB BECMG 2600/2602 06003G08MPS

超过4000个机场的气象观测和天气预报(METAR&TAF报告)。

可查询的气象台以黄色和红色小点在地图上表示。

将鼠标移到小点上方,可查看气象台名称。

然后点击查看天气观测和预报。

如需切换地图:点击带黑十字的绿色按钮放大地图;点击带横线的绿色按钮缩小地图;或者点击绿色箭头查看邻近地区的地图。


METAR-TAF: